createdAt,value
2022-09-09T00:02:09.304Z,100959.53
2022-09-09T00:05:29.072Z,100964.53
2022-09-09T00:08:11.138Z,100966.00
2022-09-09T00:11:09.060Z,100956.78
2022-09-09T00:14:00.176Z,100951.28
2022-09-09T00:16:51.021Z,100952.81
2022-09-09T00:19:46.786Z,100943.91
2022-09-09T00:22:38.034Z,100944.31
2022-09-09T00:25:36.239Z,100935.91
2022-09-09T00:28:30.033Z,100931.16
2022-09-09T00:31:28.155Z,100930.19
2022-09-09T00:34:34.785Z,100942.03
2022-09-09T00:37:24.062Z,100942.28
2022-09-09T00:40:24.550Z,100948.25
2022-09-09T00:43:18.017Z,100934.63
2022-09-09T00:46:27.218Z,100937.72
2022-09-09T00:49:21.996Z,100940.28
2022-09-09T00:52:26.494Z,100933.59
2022-09-09T00:55:35.969Z,100929.47
2022-09-09T00:58:23.961Z,100923.13
2022-09-09T01:01:10.565Z,100922.41
2022-09-09T01:04:11.013Z,100923.72
2022-09-09T01:06:57.078Z,100925.19
2022-09-09T01:09:58.952Z,100931.25
2022-09-09T01:12:45.973Z,100920.34
2022-09-09T01:15:41.986Z,100919.59
2022-09-09T01:18:31.003Z,100917.25
2022-09-09T01:21:17.060Z,100923.00
2022-09-09T01:24:04.981Z,100934.91
2022-09-09T01:27:23.995Z,100923.44
2022-09-09T01:30:24.963Z,100934.63
2022-09-09T01:33:07.115Z,100930.94
2022-09-09T01:36:04.926Z,100932.19
2022-09-09T01:38:59.949Z,100928.63
2022-09-09T01:41:46.962Z,100929.38
2022-09-09T01:44:28.059Z,100919.75
2022-09-09T01:47:14.930Z,100920.91
2022-09-09T01:50:24.989Z,100925.69
2022-09-09T01:53:11.943Z,100924.59
2022-09-09T01:56:21.057Z,100925.50
2022-09-09T01:59:37.913Z,100924.31
2022-09-09T02:02:31.964Z,100923.38
2022-09-09T02:05:47.901Z,100925.34
2022-09-09T02:09:01.936Z,100922.41
2022-09-09T02:11:48.176Z,100940.41
2022-09-09T02:14:55.893Z,100936.38
2022-09-09T02:17:49.903Z,100939.31
2022-09-09T02:20:35.106Z,100934.75
2022-09-09T02:23:22.935Z,100936.53
2022-09-09T02:26:12.897Z,100939.03
2022-09-09T02:29:07.013Z,100935.94
2022-09-09T02:31:48.901Z,100933.44
2022-09-09T02:34:40.168Z,100926.66
2022-09-09T02:37:32.897Z,100936.03
2022-09-09T02:40:22.561Z,100937.47
2022-09-09T02:43:07.882Z,100919.09
2022-09-09T02:46:15.935Z,100931.16
2022-09-09T02:49:03.024Z,100926.50
2022-09-09T02:52:14.830Z,100921.09
2022-09-09T02:55:00.085Z,100929.09
2022-09-09T02:57:47.847Z,100925.47
2022-09-09T03:00:38.757Z,100920.63
2022-09-09T03:03:26.882Z,100919.81
2022-09-09T03:06:12.932Z,100925.13
2022-09-09T03:26:11.080Z,100938.16
2022-09-09T03:28:54.320Z,100941.75
2022-09-09T03:31:42.071Z,100933.22
2022-09-09T03:34:29.051Z,100940.78
2022-09-09T03:37:09.179Z,100936.78
2022-09-09T03:39:56.111Z,100935.69
2022-09-09T03:42:37.957Z,100933.19
2022-09-09T03:45:25.110Z,100935.78
2022-09-09T03:48:05.884Z,100932.97
2022-09-09T03:50:54.038Z,100939.88
2022-09-09T03:53:35.362Z,100934.75
2022-09-09T03:56:22.064Z,100934.47
2022-09-09T03:59:03.220Z,100938.50
2022-09-09T04:01:50.090Z,100940.41
2022-09-09T04:04:37.003Z,100938.94
2022-09-09T04:07:24.015Z,100928.94
2022-09-09T04:10:11.052Z,100930.72
2022-09-09T04:12:57.987Z,100935.22
2022-09-09T04:15:46.008Z,100944.16
2022-09-09T04:18:29.164Z,100935.50
2022-09-09T04:21:17.026Z,100932.53
2022-09-09T04:24:11.015Z,100939.06
2022-09-09T04:26:51.413Z,100937.88
2022-09-09T04:29:38.011Z,100931.47
2022-09-09T04:32:24.971Z,100927.69
2022-09-09T04:35:12.030Z,100938.16
2022-09-09T04:37:52.410Z,100941.91
2022-09-09T04:40:40.974Z,100947.78
2022-09-09T04:43:29.986Z,100946.97
2022-09-09T04:46:19.989Z,100943.59
2022-09-09T04:49:00.334Z,100939.28
2022-09-09T04:51:47.971Z,100940.97
2022-09-09T04:54:29.538Z,100937.75
2022-09-09T04:57:18.794Z,100935.59
2022-09-09T05:00:00.998Z,100928.78
2022-09-09T05:02:52.957Z,100935.81
2022-09-09T05:05:37.271Z,100931.97
2022-09-09T05:08:23.930Z,100941.50
2022-09-09T05:11:32.977Z,100939.41
2022-09-09T05:14:23.695Z,100944.25
2022-09-09T05:17:09.947Z,100946.13
2022-09-09T05:19:50.278Z,100939.44
2022-09-09T05:22:37.925Z,100937.03
2022-09-09T05:25:24.960Z,100933.44
2022-09-09T05:28:06.481Z,100935.81
2022-09-09T05:30:52.961Z,100935.00
2022-09-09T05:33:38.018Z,100928.50
2022-09-09T05:36:29.907Z,100925.03
2022-09-09T05:39:10.427Z,100924.00
2022-09-09T05:41:56.977Z,100930.91
2022-09-09T05:44:38.267Z,100927.78
2022-09-09T05:47:24.946Z,100918.75
2022-09-09T05:50:06.681Z,100923.47
2022-09-09T05:52:53.930Z,100920.88
2022-09-09T05:55:34.347Z,100925.50
2022-09-09T05:58:20.949Z,100919.75
2022-09-09T06:01:17.938Z,100918.06
2022-09-09T06:03:59.038Z,100922.22
2022-09-09T06:06:47.926Z,100924.63
2022-09-09T06:09:33.018Z,100926.63
2022-09-09T06:12:19.929Z,100915.50
2022-09-09T06:15:00.087Z,100929.53
2022-09-09T06:17:46.906Z,100919.78
2022-09-09T06:20:33.915Z,100929.91
2022-09-09T06:23:20.910Z,100929.53
2022-09-09T06:26:24.880Z,100929.56
2022-09-09T06:29:12.916Z,100930.06
2022-09-09T06:31:53.154Z,100939.66
2022-09-09T06:34:40.907Z,100940.28
2022-09-09T06:37:21.627Z,100938.56
2022-09-09T06:40:07.915Z,100951.25
2022-09-09T06:42:54.881Z,100951.66
2022-09-09T06:45:42.287Z,100949.69
2022-09-09T06:48:29.944Z,100955.28
2022-09-09T06:51:13.758Z,100957.66
2022-09-09T06:54:01.861Z,100961.31
2022-09-09T06:56:50.884Z,100956.38
2022-09-09T06:59:32.027Z,100957.69
2022-09-09T07:02:18.906Z,100960.06
2022-09-09T07:05:05.876Z,100956.72
2022-09-09T07:07:48.242Z,100944.19
2022-09-09T07:10:34.916Z,100951.59
2022-09-09T07:13:22.829Z,100962.22
2022-09-09T07:16:03.070Z,100953.13
2022-09-09T07:18:50.834Z,100964.97
2022-09-09T07:21:34.151Z,100964.16
2022-09-09T07:24:21.859Z,100961.72
2022-09-09T07:27:08.834Z,100964.09
2022-09-09T07:29:49.677Z,100965.66
2022-09-09T07:32:38.811Z,100956.69
2022-09-09T07:35:25.813Z,100950.75
2022-09-09T07:38:15.840Z,100952.63
2022-09-09T07:41:07.949Z,100956.75
2022-09-09T07:43:57.815Z,100957.94
2022-09-09T07:46:46.877Z,100967.06
2022-09-09T07:49:33.418Z,100974.00
2022-09-09T07:52:21.970Z,100972.19
2022-09-09T07:55:06.983Z,100971.38
2022-09-09T07:57:53.802Z,100969.66
2022-09-09T08:00:34.609Z,100965.47
2022-09-09T08:03:21.878Z,100968.25
2022-09-09T08:06:15.809Z,100966.84
2022-09-09T08:09:03.821Z,100969.25
2022-09-09T08:11:45.913Z,100965.78
2022-09-09T08:14:32.773Z,100967.41
2022-09-09T08:17:13.918Z,100962.53
2022-09-09T08:20:01.810Z,100967.66
2022-09-09T08:22:49.812Z,100957.84
2022-09-09T08:25:36.794Z,100951.03
2022-09-09T08:28:16.974Z,100946.25
2022-09-09T08:31:03.821Z,100948.03
2022-09-09T08:33:53.531Z,100953.78
2022-09-09T08:36:37.798Z,100939.47
2022-09-09T08:39:28.777Z,100943.09
2022-09-09T08:42:28.764Z,100930.97
2022-09-09T08:45:27.778Z,100936.28
2022-09-09T08:48:53.039Z,100938.50
2022-09-09T08:51:44.756Z,100939.13
2022-09-09T08:54:51.777Z,100936.72
2022-09-09T08:57:35.911Z,100942.94
2022-09-09T09:00:22.775Z,100930.34
2022-09-09T09:03:16.758Z,100926.63
2022-09-09T09:06:13.555Z,100913.81
2022-09-09T09:09:00.763Z,100919.94
2022-09-09T09:11:52.593Z,100918.50
2022-09-09T09:14:43.676Z,100922.56
2022-09-09T09:17:35.747Z,100914.56
2022-09-09T09:20:21.890Z,100914.66
2022-09-09T09:23:11.746Z,100927.19
2022-09-09T09:25:58.731Z,100922.81
2022-09-09T09:28:41.334Z,100919.19
2022-09-09T09:31:30.789Z,100933.69
2022-09-09T09:34:13.082Z,100932.25
2022-09-09T09:37:09.690Z,100942.25
2022-09-09T09:40:05.980Z,100939.88
2022-09-09T09:43:02.717Z,100943.75
2022-09-09T09:45:55.283Z,100952.56
2022-09-09T09:48:47.678Z,100946.34
2022-09-09T09:51:36.754Z,100939.78
2022-09-09T09:54:30.709Z,100936.41
2022-09-09T09:57:13.378Z,100929.84
2022-09-09T10:00:02.674Z,100925.97
2022-09-09T10:02:55.912Z,100923.97
2022-09-09T10:05:43.758Z,100919.47
2022-09-09T10:08:32.731Z,100938.22
2022-09-09T10:11:29.785Z,100921.81
2022-09-09T10:14:42.704Z,100924.63
2022-09-09T10:17:46.810Z,100912.84
2022-09-09T10:21:15.688Z,100915.06
2022-09-09T10:24:32.763Z,100907.00
2022-09-09T10:27:36.689Z,100915.59
2022-09-09T10:30:19.952Z,100919.19
2022-09-09T10:33:17.658Z,100909.31
2022-09-09T10:36:30.789Z,100912.16
2022-09-09T10:39:50.700Z,100905.78
2022-09-09T10:42:44.607Z,100906.47
2022-09-09T10:45:41.623Z,100913.28
2022-09-09T10:49:05.271Z,100911.22
2022-09-09T10:51:57.659Z,100909.78
2022-09-09T10:55:03.611Z,100904.88
2022-09-09T10:57:56.653Z,100914.88
2022-09-09T11:01:00.629Z,100904.75
2022-09-09T11:03:42.729Z,100910.72
2022-09-09T11:06:33.862Z,100904.94
2022-09-09T11:09:26.617Z,100902.81
2022-09-09T11:12:09.591Z,100906.31
2022-09-09T11:15:04.604Z,100905.34
2022-09-09T11:17:52.708Z,100907.94
2022-09-09T11:20:39.583Z,100912.47
2022-09-09T11:23:24.722Z,100914.53
2022-09-09T11:26:14.655Z,100916.03
2022-09-09T11:29:05.096Z,100909.13
2022-09-09T11:32:07.608Z,100901.66
2022-09-09T11:35:04.605Z,100910.84
2022-09-09T11:37:52.311Z,100904.69
2022-09-09T11:40:40.594Z,100907.34
2022-09-09T11:43:39.617Z,100895.88
2022-09-09T11:46:29.655Z,100901.31
2022-09-09T11:49:29.833Z,100892.63
2022-09-09T11:52:45.586Z,100893.09
2022-09-09T11:55:40.571Z,100895.63
2022-09-09T11:58:27.578Z,100891.19
2022-09-09T12:01:42.572Z,100884.44
2022-09-09T12:04:40.712Z,100880.00
2022-09-09T12:07:28.837Z,100880.41
2022-09-09T12:10:33.541Z,100873.94
2022-09-09T12:13:23.952Z,100873.66
2022-09-09T12:16:13.587Z,100888.09
2022-09-09T12:19:15.665Z,100869.44
2022-09-09T12:22:12.573Z,100861.41
2022-09-09T12:25:53.554Z,100855.44
2022-09-09T12:28:54.111Z,100849.06
2022-09-09T12:31:55.549Z,100855.97
2022-09-09T12:34:47.924Z,100857.97
2022-09-09T12:37:56.521Z,100855.03
2022-09-09T12:40:43.519Z,100846.69
2022-09-09T12:43:33.630Z,100862.81
2022-09-09T12:46:33.514Z,100861.53
2022-09-09T12:49:41.507Z,100843.00
2022-09-09T12:52:37.486Z,100839.00
2022-09-09T12:55:33.546Z,100849.50
2022-09-09T12:58:17.678Z,100838.56
2022-09-09T13:01:07.549Z,100842.63
2022-09-09T13:03:48.325Z,100835.78
2022-09-09T13:06:44.505Z,100824.44
2022-09-09T13:09:25.403Z,100834.19
2022-09-09T13:12:13.522Z,100833.00
2022-09-09T13:15:03.514Z,100834.63
2022-09-09T13:17:50.490Z,100822.09
2022-09-09T13:20:32.036Z,100828.97
2022-09-09T13:23:18.492Z,100822.16
2022-09-09T13:26:29.480Z,100818.97
2022-09-09T13:29:24.611Z,100814.97
2022-09-09T13:32:13.465Z,100816.09
2022-09-09T13:35:11.502Z,100823.75
2022-09-09T13:37:51.875Z,100810.47
2022-09-09T13:40:39.507Z,100808.44
2022-09-09T13:43:30.474Z,100815.38
2022-09-09T13:46:20.455Z,100817.75
2022-09-09T13:49:14.643Z,100806.09
2022-09-09T13:51:58.438Z,100808.91
2022-09-09T13:54:45.445Z,100806.50
2022-09-09T13:57:38.461Z,100808.16
2022-09-09T14:00:19.120Z,100819.00
2022-09-09T14:03:05.469Z,100817.41
2022-09-09T14:05:46.657Z,100828.69
2022-09-09T14:08:44.474Z,100821.41
2022-09-09T14:11:31.436Z,100811.75
2022-09-09T14:14:11.931Z,100804.09
2022-09-09T14:16:58.435Z,100794.44
2022-09-09T14:19:45.429Z,100788.44
2022-09-09T14:22:26.689Z,100783.97
2022-09-09T14:25:13.397Z,100771.91
2022-09-09T14:27:53.769Z,100785.59
2022-09-09T14:30:40.462Z,100777.16
2022-09-09T14:33:20.890Z,100763.88
2022-09-09T14:36:14.397Z,100762.69
2022-09-09T14:39:01.414Z,100765.09
2022-09-09T14:41:48.431Z,100772.75
2022-09-09T14:44:29.310Z,100775.97
2022-09-09T14:47:16.374Z,100777.59
2022-09-09T14:50:03.385Z,100771.97
2022-09-09T14:52:50.413Z,100767.91
2022-09-09T14:55:37.460Z,100775.97
2022-09-09T14:58:17.533Z,100773.56
2022-09-09T15:01:19.471Z,100771.16
2022-09-09T15:04:09.371Z,100764.31
2022-09-09T15:06:50.942Z,100753.03
2022-09-09T15:09:37.370Z,100767.47
2022-09-09T15:27:59.616Z,100781.09
2022-09-09T15:30:40.031Z,100764.22
2022-09-09T15:33:26.648Z,100766.25
2022-09-09T15:36:30.635Z,100763.06
2022-09-09T15:39:13.947Z,100757.03
2022-09-09T15:42:00.601Z,100767.47
2022-09-09T15:44:56.630Z,100757.03
2022-09-09T15:47:44.591Z,100762.25
2022-09-09T15:50:24.737Z,100755.41
2022-09-09T15:53:12.620Z,100757.41
2022-09-09T15:55:59.591Z,100757.41
2022-09-09T15:58:46.580Z,100755.78
2022-09-09T16:01:26.817Z,100759.78
2022-09-09T16:04:13.598Z,100766.22
2022-09-09T16:07:00.596Z,100758.59
2022-09-09T16:09:47.682Z,100758.16
2022-09-09T16:12:27.620Z,100764.59
2022-09-09T16:15:08.470Z,100764.97
2022-09-09T16:17:55.557Z,100750.13
2022-09-09T16:20:43.575Z,100752.13
2022-09-09T16:23:23.718Z,100762.56
2022-09-09T16:26:10.542Z,100761.34
2022-09-09T16:28:57.592Z,100762.56
2022-09-09T16:31:44.589Z,100764.97
2022-09-09T16:34:32.564Z,100759.72
2022-09-09T16:37:12.961Z,100775.78
2022-09-09T16:39:59.669Z,100766.16
2022-09-09T16:42:46.567Z,100768.53
2022-09-09T16:45:26.711Z,100761.31
2022-09-09T16:48:13.561Z,100774.56
2022-09-09T16:50:53.992Z,100769.75
2022-09-09T16:53:41.559Z,100773.41
2022-09-09T16:56:26.302Z,100768.97
2022-09-09T16:59:16.536Z,100783.03
2022-09-09T17:02:05.557Z,100771.41
2022-09-09T17:04:45.906Z,100777.03
2022-09-09T17:07:32.518Z,100775.75
2022-09-09T17:10:12.882Z,100759.72
2022-09-09T17:12:59.522Z,100772.94
2022-09-09T17:15:50.626Z,100774.16
2022-09-09T17:18:37.539Z,100775.41
2022-09-09T17:21:22.104Z,100795.91
2022-09-09T17:24:11.507Z,100799.53
2022-09-09T17:26:58.850Z,100800.31
2022-09-09T17:29:38.545Z,100800.34
2022-09-09T17:32:25.484Z,100820.03
2022-09-09T17:35:13.476Z,100797.53
2022-09-09T17:38:02.462Z,100797.53
2022-09-09T17:40:43.796Z,100797.53
2022-09-09T17:43:30.482Z,100809.16
2022-09-09T17:46:20.534Z,100818.03
2022-09-09T17:49:06.105Z,100809.16
2022-09-09T17:51:52.458Z,100805.16
2022-09-09T17:54:33.357Z,100806.41
2022-09-09T17:57:20.465Z,100815.22
2022-09-09T18:00:00.867Z,100817.25
2022-09-09T18:02:52.487Z,100812.44
2022-09-09T18:05:39.545Z,100821.28
2022-09-09T18:08:20.435Z,100822.09
2022-09-09T18:11:02.211Z,100820.06
2022-09-09T18:13:49.462Z,100817.66
2022-09-09T18:16:42.523Z,100819.66
2022-09-09T18:19:34.465Z,100830.53
2022-09-09T18:22:14.945Z,100829.72
2022-09-09T18:25:01.409Z,100831.34
2022-09-09T18:27:48.637Z,100833.38
2022-09-09T18:30:29.463Z,100821.31
2022-09-09T18:33:09.882Z,100812.44
2022-09-09T18:35:56.437Z,100821.31
2022-09-09T18:38:38.623Z,100813.66
2022-09-09T18:41:37.437Z,100828.94
2022-09-09T18:44:31.412Z,100832.94
2022-09-09T18:47:11.534Z,100838.19
2022-09-09T18:49:58.425Z,100827.31
2022-09-09T18:52:38.523Z,100827.72
2022-09-09T18:55:25.428Z,100834.16
2022-09-09T18:58:05.572Z,100831.75
2022-09-09T19:00:53.427Z,100826.53
2022-09-09T19:03:42.382Z,100824.09
2022-09-09T19:06:32.410Z,100823.72
2022-09-09T19:09:19.408Z,100820.91
2022-09-09T19:12:07.421Z,100817.28
2022-09-09T19:14:47.747Z,100815.69
2022-09-09T19:17:35.430Z,100820.50
2022-09-09T19:20:23.408Z,100810.03
2022-09-09T19:23:05.021Z,100816.88
2022-09-09T19:25:52.392Z,100806.81
2022-09-09T19:28:42.598Z,100802.81
2022-09-09T19:31:25.375Z,100810.84
2022-09-09T19:34:12.402Z,100808.41
2022-09-09T19:37:00.382Z,100803.19
2022-09-09T19:39:41.391Z,100799.59
2022-09-09T19:42:28.332Z,100797.59
2022-09-09T19:45:15.453Z,100796.41
2022-09-09T19:47:55.371Z,100789.53
2022-09-09T19:50:37.070Z,100802.81
2022-09-09T19:53:24.330Z,100798.78
2022-09-09T19:56:05.787Z,100801.59
2022-09-09T19:58:54.368Z,100801.97
2022-09-09T20:01:43.440Z,100796.34
2022-09-09T20:04:23.453Z,100792.34
2022-09-09T20:07:10.327Z,100795.56
2022-09-09T20:09:57.376Z,100793.59
2022-09-09T20:12:44.447Z,100790.75
2022-09-09T20:15:24.316Z,100786.34
2022-09-09T20:18:04.906Z,100797.59
2022-09-09T20:20:55.317Z,100799.97
2022-09-09T20:23:35.855Z,100793.53
2022-09-09T20:26:25.339Z,100793.97
2022-09-09T20:29:15.257Z,100780.72
2022-09-09T20:32:02.306Z,100781.09
2022-09-09T20:34:49.325Z,100790.75
2022-09-09T20:37:31.871Z,100791.97
2022-09-09T20:40:18.291Z,100788.34
2022-09-09T20:43:05.285Z,100789.13
2022-09-09T20:45:52.323Z,100794.34
2022-09-09T20:48:39.281Z,100792.34
2022-09-09T20:51:27.269Z,100793.16
2022-09-09T20:54:26.264Z,100785.09
2022-09-09T20:57:13.270Z,100778.66
2022-09-09T21:00:00.273Z,100776.66
2022-09-09T21:02:40.705Z,100774.66
2022-09-09T21:05:27.292Z,100782.72
2022-09-09T21:08:07.650Z,100773.47
2022-09-09T21:10:58.312Z,100773.84
2022-09-09T21:13:39.688Z,100775.06
2022-09-09T21:16:29.263Z,100782.69
2022-09-09T21:19:23.273Z,100777.84
2022-09-09T21:22:10.298Z,100773.84
2022-09-09T21:24:50.935Z,100786.72
2022-09-09T21:27:37.228Z,100791.53
2022-09-09T21:30:34.795Z,100785.91
2022-09-09T21:33:18.269Z,100786.28
2022-09-09T21:36:07.023Z,100779.47
2022-09-09T21:38:55.258Z,100775.47
2022-09-09T21:41:43.228Z,100776.66
2022-09-09T21:44:23.340Z,100771.03
2022-09-09T21:47:10.236Z,100772.22
2022-09-09T21:49:51.073Z,100776.66
2022-09-09T21:52:38.217Z,100768.22
2022-09-09T21:55:18.341Z,100778.66
2022-09-09T21:58:06.250Z,100762.59
2022-09-09T22:00:51.362Z,100761.34
2022-09-09T22:03:38.184Z,100753.34
2022-09-09T22:06:20.359Z,100754.53
2022-09-09T22:09:08.245Z,100749.72
2022-09-09T22:11:48.309Z,100738.03
2022-09-09T22:14:35.230Z,100740.47
2022-09-09T22:17:22.202Z,100740.88
2022-09-09T22:20:09.330Z,100734.00
2022-09-09T22:22:49.210Z,100752.06
2022-09-09T22:25:42.208Z,100728.75
2022-09-09T22:28:30.021Z,100725.53
2022-09-09T22:31:11.208Z,100725.94
2022-09-09T22:34:01.188Z,100727.13
2022-09-09T22:36:42.140Z,100713.88
2022-09-09T22:39:29.180Z,100718.69
2022-09-09T22:42:09.265Z,100721.13
2022-09-09T22:44:56.169Z,100718.69
2022-09-09T22:47:43.157Z,100721.53
2022-09-09T22:50:23.970Z,100709.06
2022-09-09T22:53:11.187Z,100715.91
2022-09-09T22:55:58.542Z,100709.47
2022-09-09T22:58:47.152Z,100707.06
2022-09-09T23:01:29.313Z,100711.88
2022-09-09T23:04:16.124Z,100705.06
2022-09-09T23:06:56.516Z,100704.25
2022-09-09T23:09:43.112Z,100699.84
2022-09-09T23:12:32.153Z,100703.84
2022-09-09T23:15:24.180Z,100687.78
2022-09-09T23:18:04.513Z,100700.22
2022-09-09T23:20:52.169Z,100692.19
2022-09-09T23:23:32.692Z,100694.59
2022-09-09T23:26:19.167Z,100698.63
2022-09-09T23:29:14.151Z,100695.03
2022-09-09T23:31:54.487Z,100687.38
2022-09-09T23:34:42.123Z,100676.94
2022-09-09T23:37:29.105Z,100682.97
2022-09-09T23:40:09.239Z,100681.72
2022-09-09T23:42:56.081Z,100678.91
2022-09-09T23:45:43.122Z,100682.94
2022-09-09T23:48:34.101Z,100677.72
2022-09-09T23:51:26.114Z,100676.09
2022-09-09T23:54:06.648Z,100681.72
2022-09-09T23:56:55.064Z,100687.78
2022-09-09T23:59:35.637Z,100686.94
